Аэропорт: Нахичевань. Нахичевань

ICAO: UBBN

METAR:
2020-06-02 09:00:00
UBBN 020900Z 13008KT 9999 FEW100 35/01 Q1006 R14R/CLRD// NOSIG RMK MT OP QFE680
METAR:
2020-06-02 05:04:00
TAF UBBN 020504Z 0206/0306 VRB04KT 9999 FEW050 SCT100 TX34/0212Z TN15/0302Z TEMPO 0206/0211 15012KT FEW040CB BKN090 TEMPO 0211/0218 23014KT -TSRA SCT036CB BKN070 TEMPO 0220/0304 05010KT